createdAt,value
2023-05-21T00:02:04.229Z,84.80
2023-05-21T00:04:49.953Z,86.60
2023-05-21T00:07:35.736Z,86.20
2023-05-21T00:10:21.437Z,85.90
2023-05-21T00:13:07.190Z,84.80
2023-05-21T00:15:52.966Z,84.10
2023-05-21T00:18:39.690Z,84.00
2023-05-21T00:21:26.377Z,84.00
2023-05-21T00:24:12.160Z,82.80
2023-05-21T00:26:57.653Z,82.70
2023-05-21T00:29:44.493Z,82.00
2023-05-21T00:32:30.362Z,82.40
2023-05-21T00:35:16.618Z,83.60
2023-05-21T00:38:02.418Z,84.00
2023-05-21T00:40:48.371Z,83.30
2023-05-21T00:43:34.019Z,84.40
2023-05-21T00:46:21.616Z,84.10
2023-05-21T00:49:07.612Z,86.30
2023-05-21T00:51:53.275Z,85.30
2023-05-21T00:54:39.269Z,86.00
2023-05-21T00:57:27.217Z,84.80
2023-05-21T01:00:14.677Z,84.60
2023-05-21T01:03:01.197Z,85.00
2023-05-21T01:05:47.217Z,84.90
2023-05-21T01:08:35.131Z,85.70
2023-05-21T01:11:22.073Z,84.70
2023-05-21T01:14:09.589Z,83.20
2023-05-21T01:16:55.668Z,83.60
2023-05-21T01:19:42.833Z,84.30
2023-05-21T01:22:32.779Z,85.10
2023-05-21T01:25:18.580Z,84.40
2023-05-21T01:28:04.148Z,85.00
2023-05-21T01:30:49.773Z,84.60
2023-05-21T01:33:47.517Z,84.50
2023-05-21T01:36:41.081Z,84.70
2023-05-21T01:39:41.767Z,84.50
2023-05-21T01:42:29.528Z,84.70
2023-05-21T01:45:16.698Z,84.00
2023-05-21T01:48:03.621Z,85.30
2023-05-21T01:50:50.130Z,84.60
2023-05-21T01:53:38.875Z,83.10
2023-05-21T01:56:25.943Z,83.10
2023-05-21T01:59:11.738Z,84.00
2023-05-21T02:01:57.229Z,84.00
2023-05-21T02:04:44.228Z,84.40
2023-05-21T02:07:33.869Z,85.30
2023-05-21T02:10:19.920Z,85.90
2023-05-21T02:13:05.710Z,85.90
2023-05-21T02:15:54.817Z,85.80
2023-05-21T02:18:44.054Z,85.80
2023-05-21T02:21:29.462Z,87.00
2023-05-21T02:24:15.444Z,87.50
2023-05-21T02:27:00.969Z,87.20
2023-05-21T02:29:46.653Z,88.40
2023-05-21T02:32:32.585Z,89.10
2023-05-21T02:35:18.355Z,90.00
2023-05-21T02:38:03.546Z,91.00
2023-05-21T02:40:51.305Z,89.90
2023-05-21T02:43:37.339Z,88.90
2023-05-21T02:46:22.714Z,88.40
2023-05-21T02:49:08.206Z,88.00
2023-05-21T02:51:53.780Z,87.80
2023-05-21T02:54:39.562Z,86.60
2023-05-21T02:57:24.940Z,85.70
2023-05-21T03:00:11.711Z,85.30
2023-05-21T03:02:57.211Z,84.90
2023-05-21T03:05:42.885Z,84.70
2023-05-21T03:08:28.549Z,84.70
2023-05-21T03:11:14.153Z,84.60
2023-05-21T03:13:59.621Z,84.40
2023-05-21T03:16:45.309Z,84.40
2023-05-21T03:19:34.596Z,83.50
2023-05-21T03:22:20.118Z,83.90
2023-05-21T03:25:06.180Z,84.40
2023-05-21T03:27:52.424Z,83.70
2023-05-21T03:30:38.519Z,84.60
2023-05-21T03:33:24.257Z,85.00
2023-05-21T03:36:09.622Z,84.90
2023-05-21T03:38:55.162Z,85.50
2023-05-21T03:41:41.019Z,86.20
2023-05-21T03:44:26.914Z,86.60
2023-05-21T03:47:13.553Z,87.10
2023-05-21T03:49:59.766Z,86.90
2023-05-21T03:52:45.894Z,85.90
2023-05-21T03:55:32.164Z,85.80
2023-05-21T03:58:18.198Z,85.50
2023-05-21T04:01:05.366Z,85.10
2023-05-21T04:03:52.711Z,85.30
2023-05-21T04:06:38.757Z,85.30
2023-05-21T04:09:24.300Z,86.00
2023-05-21T04:12:09.787Z,86.50
2023-05-21T04:14:56.014Z,86.60
2023-05-21T04:17:41.878Z,85.90
2023-05-21T04:20:27.990Z,86.50
2023-05-21T04:23:13.876Z,86.30
2023-05-21T04:25:59.845Z,86.10
2023-05-21T04:28:46.043Z,86.00
2023-05-21T04:31:35.588Z,86.40
2023-05-21T04:34:21.703Z,86.40
2023-05-21T04:37:07.788Z,86.00
2023-05-21T04:39:54.818Z,85.70
2023-05-21T04:42:41.533Z,85.30
2023-05-21T04:45:27.595Z,84.90
2023-05-21T04:48:15.870Z,84.60
2023-05-21T04:51:01.615Z,83.40
2023-05-21T04:53:48.747Z,82.10
2023-05-21T04:56:34.630Z,82.10
2023-05-21T04:59:22.260Z,83.00
2023-05-21T05:02:08.568Z,83.50
2023-05-21T05:04:54.484Z,82.20
2023-05-21T05:07:41.366Z,81.80
2023-05-21T05:10:27.442Z,81.30
2023-05-21T05:13:13.447Z,79.80
2023-05-21T05:16:00.512Z,79.60
2023-05-21T05:18:47.350Z,78.60
2023-05-21T05:21:33.383Z,76.80
2023-05-21T05:24:19.386Z,76.00
2023-05-21T05:27:05.324Z,76.60
2023-05-21T05:29:51.381Z,75.80
2023-05-21T05:32:37.361Z,76.30
2023-05-21T05:35:23.309Z,76.40
2023-05-21T05:38:09.387Z,76.20
2023-05-21T05:40:55.241Z,76.20
2023-05-21T05:43:41.222Z,75.70
2023-05-21T05:46:27.292Z,76.20
2023-05-21T05:49:14.337Z,75.30
2023-05-21T05:52:01.279Z,74.90
2023-05-21T05:54:47.855Z,73.80
2023-05-21T05:57:33.564Z,73.20
2023-05-21T06:00:20.106Z,73.50
2023-05-21T06:03:07.063Z,73.20
2023-05-21T06:05:53.036Z,73.00
2023-05-21T06:08:40.982Z,72.70
2023-05-21T06:11:27.050Z,72.10
2023-05-21T06:14:13.104Z,71.30
2023-05-21T06:16:58.968Z,71.60
2023-05-21T06:19:45.886Z,72.00
2023-05-21T06:22:32.062Z,71.80
2023-05-21T06:25:18.891Z,69.70
2023-05-21T06:28:04.896Z,66.80
2023-05-21T06:30:50.721Z,66.20
2023-05-21T06:33:36.887Z,64.10
2023-05-21T06:36:22.878Z,63.00
2023-05-21T06:39:08.783Z,61.40
2023-05-21T06:41:54.841Z,58.00
2023-05-21T06:44:40.719Z,59.10
2023-05-21T06:47:27.095Z,60.80
2023-05-21T06:50:12.804Z,63.20
2023-05-21T06:52:58.698Z,60.10
2023-05-21T06:55:45.517Z,58.40
2023-05-21T06:58:31.639Z,59.10
2023-05-21T07:01:17.094Z,58.80
2023-05-21T07:04:02.990Z,58.20
2023-05-21T07:06:48.759Z,60.10
2023-05-21T07:09:34.588Z,58.30
2023-05-21T07:12:20.681Z,58.00
2023-05-21T07:15:06.846Z,58.70
2023-05-21T07:17:52.643Z,60.20
2023-05-21T07:20:38.518Z,58.60
2023-05-21T07:23:24.752Z,58.80
2023-05-21T07:26:11.498Z,58.00
2023-05-21T07:28:56.720Z,55.20
2023-05-21T07:31:45.158Z,57.20
2023-05-21T07:34:32.324Z,53.40
2023-05-21T07:37:19.428Z,54.00
2023-05-21T07:40:06.504Z,54.20
2023-05-21T07:42:52.363Z,55.10
2023-05-21T07:45:38.523Z,53.00
2023-05-21T07:48:24.444Z,54.30
2023-05-21T07:51:10.631Z,50.60
2023-05-21T07:53:56.647Z,51.80
2023-05-21T07:56:42.337Z,52.30
2023-05-21T07:59:28.342Z,51.80
2023-05-21T08:02:14.101Z,52.60
2023-05-21T08:05:02.134Z,51.30
2023-05-21T08:07:48.046Z,53.20
2023-05-21T08:10:34.044Z,52.30
2023-05-21T08:13:20.094Z,48.60
2023-05-21T08:16:06.505Z,48.60
2023-05-21T08:18:52.548Z,47.70
2023-05-21T08:21:38.008Z,44.20
2023-05-21T08:24:24.183Z,45.20
2023-05-21T08:27:10.255Z,45.70
2023-05-21T08:29:55.952Z,44.60
2023-05-21T08:32:42.212Z,42.70
2023-05-21T08:35:28.076Z,43.10
2023-05-21T08:38:13.786Z,41.60
2023-05-21T08:41:00.969Z,42.90
2023-05-21T08:43:50.183Z,40.90
2023-05-21T08:46:39.857Z,40.90
2023-05-21T08:49:31.840Z,41.40
2023-05-21T08:52:18.864Z,39.50
2023-05-21T08:55:05.605Z,38.90
2023-05-21T08:57:53.821Z,39.90
2023-05-21T09:00:39.919Z,38.70
2023-05-21T09:03:27.598Z,35.40
2023-05-21T09:06:17.692Z,37.60
2023-05-21T09:09:11.822Z,37.20
2023-05-21T09:11:57.796Z,38.90
2023-05-21T09:14:44.896Z,37.50
2023-05-21T09:17:31.762Z,38.50
2023-05-21T09:20:17.982Z,36.90
2023-05-21T09:23:05.618Z,35.40
2023-05-21T09:25:52.662Z,33.50
2023-05-21T09:28:39.604Z,34.30
2023-05-21T09:31:28.704Z,36.20
2023-05-21T09:34:17.600Z,35.50
2023-05-21T09:37:04.985Z,35.50
2023-05-21T09:39:52.957Z,36.00
2023-05-21T09:42:41.552Z,34.80
2023-05-21T09:45:29.160Z,35.50
2023-05-21T09:48:17.212Z,37.20
2023-05-21T09:51:16.607Z,35.00
2023-05-21T09:54:03.566Z,34.50
2023-05-21T09:56:49.476Z,34.20
2023-05-21T09:59:41.604Z,32.30
2023-05-21T10:02:29.464Z,33.90
2023-05-21T10:05:17.426Z,33.20
2023-05-21T10:08:05.398Z,31.70
2023-05-21T10:10:55.113Z,33.70
2023-05-21T10:13:45.571Z,31.20
2023-05-21T10:16:33.801Z,29.00
2023-05-21T10:19:21.313Z,31.20
2023-05-21T10:22:08.003Z,31.40
2023-05-21T10:24:55.122Z,30.20
2023-05-21T10:27:42.982Z,32.90
2023-05-21T10:30:29.059Z,30.70
2023-05-21T10:33:18.705Z,29.40
2023-05-21T10:36:06.046Z,28.60
2023-05-21T10:38:53.108Z,27.90
2023-05-21T10:42:15.297Z,28.20
2023-05-21T10:45:04.150Z,28.90
2023-05-21T10:48:09.063Z,27.40
2023-05-21T10:51:14.164Z,27.20
2023-05-21T10:54:26.108Z,26.10
2023-05-21T10:57:23.989Z,27.60
2023-05-21T11:00:12.956Z,24.00
2023-05-21T11:03:00.863Z,23.50
2023-05-21T11:05:57.990Z,26.80
2023-05-21T11:08:48.750Z,25.40
2023-05-21T11:11:50.955Z,25.40
2023-05-21T11:14:56.810Z,24.40
2023-05-21T11:17:44.848Z,20.10
2023-05-21T11:20:35.080Z,22.10
2023-05-21T11:23:24.642Z,24.10
2023-05-21T11:26:10.717Z,24.60
2023-05-21T11:29:07.048Z,26.30
2023-05-21T11:32:03.179Z,25.60
2023-05-21T11:34:48.910Z,22.60
2023-05-21T11:37:35.604Z,21.30
2023-05-21T11:40:26.438Z,22.70
2023-05-21T11:43:12.639Z,22.30
2023-05-21T11:45:59.630Z,23.80
2023-05-21T11:48:46.738Z,20.30
2023-05-21T11:51:33.693Z,16.40
2023-05-21T11:54:20.211Z,16.50
2023-05-21T11:57:10.484Z,16.30
2023-05-21T11:59:58.541Z,15.70
2023-05-21T12:02:54.584Z,17.10
2023-05-21T12:05:48.686Z,13.30
2023-05-21T12:08:34.676Z,17.80
2023-05-21T12:11:22.316Z,16.70
2023-05-21T12:14:10.390Z,17.90
2023-05-21T12:16:56.450Z,16.80
2023-05-21T12:19:42.405Z,12.30
2023-05-21T12:22:30.314Z,15.80
2023-05-21T12:25:20.430Z,17.70
2023-05-21T12:28:06.227Z,20.50
2023-05-21T12:30:53.921Z,19.70
2023-05-21T12:33:40.235Z,21.00
2023-05-21T12:36:34.423Z,20.20
2023-05-21T12:39:20.311Z,17.10
2023-05-21T12:42:07.724Z,18.70
2023-05-21T12:44:54.465Z,17.70
2023-05-21T12:47:40.044Z,16.80
2023-05-21T12:50:27.285Z,14.40
2023-05-21T12:53:14.001Z,12.80
2023-05-21T12:56:09.230Z,12.50
2023-05-21T12:58:55.836Z,13.50
2023-05-21T13:01:42.175Z,14.00
2023-05-21T13:04:28.185Z,10.30
2023-05-21T13:07:16.125Z,11.60
2023-05-21T13:10:03.119Z,9.50
2023-05-21T13:12:49.170Z,9.20
2023-05-21T13:15:35.733Z,8.10
2023-05-21T13:18:22.502Z,7.00
2023-05-21T13:21:08.180Z,6.90
2023-05-21T13:23:53.961Z,11.00
2023-05-21T13:26:39.854Z,11.20
2023-05-21T13:29:25.889Z,14.70
2023-05-21T13:32:11.853Z,11.10
2023-05-21T13:34:59.814Z,11.70
2023-05-21T13:37:45.802Z,13.70
2023-05-21T13:40:31.744Z,16.60
2023-05-21T13:43:17.810Z,15.70
2023-05-21T13:46:03.823Z,16.50
2023-05-21T13:48:49.697Z,16.50
2023-05-21T13:51:38.608Z,15.00
2023-05-21T13:54:25.778Z,18.90
2023-05-21T13:57:11.712Z,14.30
2023-05-21T13:59:58.797Z,14.60
2023-05-21T14:02:45.667Z,13.30
2023-05-21T14:05:31.608Z,13.40
2023-05-21T14:08:20.652Z,14.80
2023-05-21T14:11:06.695Z,8.10
2023-05-21T14:13:53.606Z,10.10
2023-05-21T14:16:39.573Z,12.80
2023-05-21T14:19:25.751Z,12.30
2023-05-21T14:22:11.477Z,14.10
2023-05-21T14:24:57.534Z,10.60
2023-05-21T14:27:43.729Z,10.00
2023-05-21T14:30:29.475Z,10.60
2023-05-21T14:33:16.536Z,9.10
2023-05-21T14:36:03.432Z,7.00
2023-05-21T14:38:49.227Z,7.00
2023-05-21T14:41:39.319Z,7.90
2023-05-21T14:44:25.426Z,8.10
2023-05-21T14:47:11.382Z,9.20
2023-05-21T14:49:57.418Z,7.40
2023-05-21T14:52:43.431Z,5.00
2023-05-21T14:55:30.273Z,5.60
2023-05-21T14:58:17.057Z,5.00
2023-05-21T15:01:04.397Z,5.00
2023-05-21T15:03:51.217Z,5.00
2023-05-21T15:06:37.112Z,5.00
2023-05-21T15:09:23.217Z,5.00
2023-05-21T15:12:09.071Z,5.00
2023-05-21T15:14:54.884Z,5.00
2023-05-21T15:17:41.188Z,5.00
2023-05-21T15:20:26.899Z,5.00
2023-05-21T15:23:17.416Z,5.00
2023-05-21T15:26:03.407Z,5.00
2023-05-21T15:28:49.016Z,5.00
2023-05-21T15:31:34.868Z,5.00
2023-05-21T15:34:20.885Z,5.00
2023-05-21T15:37:07.001Z,5.00
2023-05-21T15:39:54.041Z,5.00
2023-05-21T15:42:40.041Z,5.00
2023-05-21T15:45:26.613Z,5.00
2023-05-21T15:48:13.380Z,5.00
2023-05-21T15:50:58.776Z,5.00
2023-05-21T15:53:44.796Z,5.00
2023-05-21T15:56:30.907Z,5.00
2023-05-21T15:59:16.888Z,5.00
2023-05-21T16:02:04.835Z,5.00
2023-05-21T16:04:52.050Z,5.00
2023-05-21T16:07:38.797Z,5.00
2023-05-21T16:10:24.912Z,5.00
2023-05-21T16:13:10.697Z,5.00
2023-05-21T16:15:56.606Z,5.00
2023-05-21T16:18:44.946Z,5.00
2023-05-21T16:21:32.684Z,5.00
2023-05-21T16:24:18.423Z,5.00
2023-05-21T16:27:05.375Z,5.00
2023-05-21T16:29:51.001Z,5.60
2023-05-21T16:32:36.606Z,8.40
2023-05-21T16:35:22.647Z,6.40
2023-05-21T16:38:08.516Z,8.60
2023-05-21T16:40:54.506Z,9.20
2023-05-21T16:43:40.520Z,13.00
2023-05-21T16:46:26.494Z,20.60
2023-05-21T16:49:12.510Z,22.80
2023-05-21T16:51:58.430Z,23.50
2023-05-21T16:54:48.959Z,23.00
2023-05-21T16:57:36.191Z,24.90
2023-05-21T17:00:22.433Z,26.30
2023-05-21T17:03:08.528Z,29.80
2023-05-21T17:05:54.509Z,31.60
2023-05-21T17:08:42.316Z,33.10
2023-05-21T17:11:28.376Z,33.90
2023-05-21T17:14:23.327Z,35.10
2023-05-21T17:17:18.630Z,35.20
2023-05-21T17:20:04.509Z,38.50
2023-05-21T17:22:50.236Z,37.40
2023-05-21T17:25:36.501Z,38.50
2023-05-21T17:28:22.464Z,39.90
2023-05-21T17:31:10.188Z,40.60
2023-05-21T17:33:56.514Z,43.20
2023-05-21T17:36:42.222Z,43.20
2023-05-21T17:39:28.055Z,44.20
2023-05-21T17:42:14.194Z,43.90
2023-05-21T17:45:00.117Z,42.90
2023-05-21T17:47:46.363Z,40.10
2023-05-21T17:50:32.115Z,44.40
2023-05-21T17:53:18.333Z,44.00
2023-05-21T17:56:04.285Z,45.70
2023-05-21T17:58:50.331Z,45.30
2023-05-21T18:01:37.107Z,45.10
2023-05-21T18:04:23.163Z,47.00
2023-05-21T18:07:09.768Z,47.80
2023-05-21T18:09:55.884Z,49.30
2023-05-21T18:12:41.962Z,49.60
2023-05-21T18:15:27.856Z,47.70
2023-05-21T18:18:20.680Z,48.30
2023-05-21T18:21:07.934Z,50.80
2023-05-21T18:23:53.904Z,54.10
2023-05-21T18:26:39.921Z,56.00
2023-05-21T18:29:25.755Z,57.60
2023-05-21T18:32:12.047Z,59.10
2023-05-21T18:34:59.039Z,60.00
2023-05-21T18:37:47.280Z,59.90
2023-05-21T18:40:34.561Z,57.70
2023-05-21T18:43:20.602Z,59.70
2023-05-21T18:46:06.784Z,61.10
2023-05-21T18:48:52.915Z,60.50
2023-05-21T18:51:39.008Z,61.40
2023-05-21T18:54:25.145Z,60.80
2023-05-21T18:57:11.278Z,61.10
2023-05-21T19:00:00.061Z,60.10
2023-05-21T19:02:47.880Z,59.60
2023-05-21T19:05:33.840Z,59.00
2023-05-21T19:08:19.160Z,60.20
2023-05-21T19:11:05.446Z,61.10
2023-05-21T19:13:51.253Z,60.70
2023-05-21T19:16:37.208Z,58.30
2023-05-21T19:19:23.074Z,60.90
2023-05-21T19:22:08.983Z,59.90
2023-05-21T19:24:55.041Z,61.30
2023-05-21T19:27:40.644Z,61.10
2023-05-21T19:30:25.986Z,59.60
2023-05-21T19:33:12.111Z,56.50
2023-05-21T19:35:57.829Z,58.80
2023-05-21T19:38:49.629Z,60.10
2023-05-21T19:41:35.128Z,59.90
2023-05-21T19:44:21.149Z,59.50
2023-05-21T19:47:06.899Z,60.90
2023-05-21T19:49:52.274Z,62.30
2023-05-21T19:52:39.297Z,61.10
2023-05-21T19:55:25.162Z,55.50
2023-05-21T19:58:13.407Z,55.80
2023-05-21T20:00:59.324Z,56.40
2023-05-21T20:03:45.637Z,56.70
2023-05-21T20:06:31.502Z,56.10
2023-05-21T20:09:18.117Z,58.20
2023-05-21T20:12:03.790Z,59.10
2023-05-21T20:14:50.182Z,59.50
2023-05-21T20:17:36.220Z,61.70
2023-05-21T20:20:26.797Z,60.60
2023-05-21T20:23:12.925Z,60.80
2023-05-21T20:25:58.347Z,62.40
2023-05-21T20:28:43.860Z,63.60
2023-05-21T20:31:29.480Z,66.00
2023-05-21T20:34:17.922Z,68.00
2023-05-21T20:37:03.960Z,66.40
2023-05-21T20:39:49.676Z,64.90
2023-05-21T20:42:35.555Z,64.90
2023-05-21T20:45:22.219Z,65.90
2023-05-21T20:48:10.084Z,65.00
2023-05-21T20:51:00.128Z,65.10
2023-05-21T20:53:46.009Z,64.80
2023-05-21T20:56:41.399Z,65.60
2023-05-21T20:59:28.390Z,65.00
2023-05-21T21:02:16.644Z,65.30
2023-05-21T21:05:03.681Z,67.10
2023-05-21T21:07:49.509Z,67.10
2023-05-21T21:10:42.533Z,67.70
2023-05-21T21:13:28.424Z,69.40
2023-05-21T21:16:14.118Z,71.50
2023-05-21T21:18:59.935Z,72.70
2023-05-21T21:21:47.718Z,72.10
2023-05-21T21:24:33.537Z,73.00
2023-05-21T21:27:19.234Z,73.50
2023-05-21T21:30:05.561Z,73.90
2023-05-21T21:32:51.245Z,74.40
2023-05-21T21:35:38.737Z,75.00
2023-05-21T21:38:24.394Z,76.90
2023-05-21T21:41:10.264Z,86.80
2023-05-21T21:43:56.200Z,89.10
2023-05-21T21:46:41.701Z,89.90
2023-05-21T21:49:27.543Z,88.10
2023-05-21T21:52:14.768Z,90.50
2023-05-21T21:55:00.344Z,90.10
2023-05-21T21:57:46.221Z,90.30
2023-05-21T22:00:31.701Z,90.80
2023-05-21T22:03:17.734Z,90.50
2023-05-21T22:06:03.385Z,90.60
2023-05-21T22:08:49.085Z,87.90
2023-05-21T22:11:35.043Z,90.30
2023-05-21T22:14:20.571Z,89.10
2023-05-21T22:17:08.601Z,88.30
2023-05-21T22:19:54.179Z,89.50
2023-05-21T22:22:39.793Z,92.50
2023-05-21T22:25:26.026Z,94.20
2023-05-21T22:28:11.777Z,93.20
2023-05-21T22:30:57.411Z,91.20
2023-05-21T22:33:43.554Z,90.30
2023-05-21T22:36:29.913Z,89.30
2023-05-21T22:39:15.779Z,89.90
2023-05-21T22:42:01.770Z,89.60
2023-05-21T22:44:47.612Z,90.20
2023-05-21T22:47:33.206Z,90.40
2023-05-21T22:50:18.824Z,90.20
2023-05-21T22:53:04.889Z,91.70
2023-05-21T22:55:50.862Z,92.00
2023-05-21T22:58:37.163Z,91.70
2023-05-21T23:01:23.275Z,92.10
2023-05-21T23:04:09.037Z,93.00
2023-05-21T23:06:54.244Z,92.00
2023-05-21T23:09:39.554Z,92.50
2023-05-21T23:12:25.087Z,94.20
2023-05-21T23:15:11.061Z,93.70
2023-05-21T23:17:57.339Z,92.20
2023-05-21T23:20:43.848Z,91.40
2023-05-21T23:23:29.530Z,90.40
2023-05-21T23:26:15.073Z,89.00
2023-05-21T23:29:04.145Z,88.40
2023-05-21T23:31:49.908Z,88.00
2023-05-21T23:34:35.587Z,89.40
2023-05-21T23:37:21.307Z,89.50
2023-05-21T23:40:07.345Z,89.70
2023-05-21T23:42:52.925Z,89.10
2023-05-21T23:45:38.886Z,88.40
2023-05-21T23:48:24.629Z,88.80
2023-05-21T23:51:10.273Z,88.90
2023-05-21T23:53:56.322Z,88.40
2023-05-21T23:56:41.847Z,87.80
2023-05-21T23:59:27.721Z,87.70
